sensor_id;sensor_type;location;lat;lon;timestamp;P1;durP1;ratioP1;P2;durP2;ratioP2
69716;SDS011;67420;46.144;19.666;2023-08-06T00:00:22;1.80;;;1.70;;
69716;SDS011;67420;46.144;19.666;2023-08-06T00:10:24;1.80;;;1.70;;
69716;SDS011;67420;46.144;19.666;2023-08-06T00:20:26;1.70;;;1.50;;
69716;SDS011;67420;46.144;19.666;2023-08-06T00:30:29;1.63;;;1.52;;
69716;SDS011;67420;46.144;19.666;2023-08-06T00:40:31;2.00;;;1.50;;
69716;SDS011;67420;46.144;19.666;2023-08-06T00:50:33;1.90;;;1.50;;
69716;SDS011;67420;46.144;19.666;2023-08-06T01:00:35;1.40;;;1.30;;
69716;SDS011;67420;46.144;19.666;2023-08-06T01:20:42;1.85;;;1.38;;
69716;SDS011;67420;46.144;19.666;2023-08-06T01:30:44;1.50;;;1.33;;
69716;SDS011;67420;46.144;19.666;2023-08-06T01:40:50;1.80;;;1.27;;
69716;SDS011;67420;46.144;19.666;2023-08-06T01:50:52;2.45;;;1.38;;
69716;SDS011;67420;46.144;19.666;2023-08-06T02:00:54;1.40;;;1.30;;
69716;SDS011;67420;46.144;19.666;2023-08-06T02:10:56;1.73;;;1.13;;
69716;SDS011;67420;46.144;19.666;2023-08-06T02:20:59;2.28;;;1.30;;
69716;SDS011;67420;46.144;19.666;2023-08-06T02:31:01;2.03;;;1.30;;
69716;SDS011;67420;46.144;19.666;2023-08-06T02:41:03;1.42;;;1.33;;
69716;SDS011;67420;46.144;19.666;2023-08-06T02:51:05;2.50;;;1.40;;
69716;SDS011;67420;46.144;19.666;2023-08-06T03:01:07;1.40;;;1.30;;
69716;SDS011;67420;46.144;19.666;2023-08-06T03:11:10;1.30;;;1.20;;
69716;SDS011;67420;46.144;19.666;2023-08-06T03:21:12;1.35;;;1.25;;
69716;SDS011;67420;46.144;19.666;2023-08-06T03:31:14;1.42;;;1.27;;
69716;SDS011;67420;46.144;19.666;2023-08-06T03:41:16;1.15;;;1.00;;
69716;SDS011;67420;46.144;19.666;2023-08-06T03:51:18;1.60;;;1.50;;
69716;SDS011;67420;46.144;19.666;2023-08-06T04:01:21;1.73;;;1.63;;
69716;SDS011;67420;46.144;19.666;2023-08-06T04:11:23;1.73;;;1.63;;
69716;SDS011;67420;46.144;19.666;2023-08-06T04:21:25;1.50;;;1.40;;
69716;SDS011;67420;46.144;19.666;2023-08-06T04:31:28;1.80;;;1.70;;
69716;SDS011;67420;46.144;19.666;2023-08-06T04:41:30;2.15;;;1.95;;
69716;SDS011;67420;46.144;19.666;2023-08-06T04:51:32;2.20;;;2.00;;
69716;SDS011;67420;46.144;19.666;2023-08-06T05:01:34;1.90;;;1.70;;
69716;SDS011;67420;46.144;19.666;2023-08-06T05:11:36;1.70;;;1.60;;
69716;SDS011;67420;46.144;19.666;2023-08-06T05:21:38;1.70;;;1.60;;
69716;SDS011;67420;46.144;19.666;2023-08-06T05:31:40;1.83;;;1.73;;
69716;SDS011;67420;46.144;19.666;2023-08-06T05:41:42;1.67;;;1.58;;
69716;SDS011;67420;46.144;19.666;2023-08-06T05:51:44;1.50;;;1.40;;
69716;SDS011;67420;46.144;19.666;2023-08-06T06:01:47;1.70;;;1.60;;
69716;SDS011;67420;46.144;19.666;2023-08-06T06:11:49;1.40;;;1.30;;
69716;SDS011;67420;46.144;19.666;2023-08-06T06:21:52;1.92;;;1.60;;
69716;SDS011;67420;46.144;19.666;2023-08-06T06:31:55;1.30;;;1.20;;
69716;SDS011;67420;46.144;19.666;2023-08-06T06:41:57;1.45;;;1.35;;
69716;SDS011;67420;46.144;19.666;2023-08-06T06:51:59;1.88;;;1.10;;
69716;SDS011;67420;46.144;19.666;2023-08-06T07:02:01;1.98;;;1.10;;
69716;SDS011;67420;46.144;19.666;2023-08-06T07:12:03;1.20;;;1.10;;
69716;SDS011;67420;46.144;19.666;2023-08-06T07:22:06;1.02;;;0.93;;
69716;SDS011;67420;46.144;19.666;2023-08-06T07:32:09;1.05;;;0.95;;
69716;SDS011;67420;46.144;19.666;2023-08-06T07:42:10;0.73;;;0.73;;
69716;SDS011;67420;46.144;19.666;2023-08-06T07:52:13;1.25;;;0.90;;
69716;SDS011;67420;46.144;19.666;2023-08-06T08:02:15;2.42;;;0.80;;
69716;SDS011;67420;46.144;19.666;2023-08-06T08:12:18;1.35;;;0.70;;
69716;SDS011;67420;46.144;19.666;2023-08-06T08:22:20;1.00;;;0.77;;
69716;SDS011;67420;46.144;19.666;2023-08-06T08:32:22;0.52;;;0.52;;
69716;SDS011;67420;46.144;19.666;2023-08-06T08:42:23;2.05;;;0.50;;
69716;SDS011;67420;46.144;19.666;2023-08-06T08:52:26;0.50;;;0.47;;
69716;SDS011;67420;46.144;19.666;2023-08-06T09:02:30;0.93;;;0.43;;
69716;SDS011;67420;46.144;19.666;2023-08-06T09:12:34;0.60;;;0.60;;
69716;SDS011;67420;46.144;19.666;2023-08-06T09:22:36;0.47;;;0.30;;
69716;SDS011;67420;46.144;19.666;2023-08-06T09:32:48;0.30;;;0.30;;
69716;SDS011;67420;46.144;19.666;2023-08-06T09:42:52;1.65;;;0.40;;
69716;SDS011;67420;46.144;19.666;2023-08-06T09:52:55;3.30;;;0.43;;
69716;SDS011;67420;46.144;19.666;2023-08-06T10:03:01;1.45;;;0.40;;
69716;SDS011;67420;46.144;19.666;2023-08-06T10:13:04;0.40;;;0.35;;
69716;SDS011;67420;46.144;19.666;2023-08-06T10:23:09;0.43;;;0.20;;
69716;SDS011;67420;46.144;19.666;2023-08-06T10:33:11;0.45;;;0.20;;
69716;SDS011;67420;46.144;19.666;2023-08-06T10:43:29;0.20;;;0.20;;
69716;SDS011;67420;46.144;19.666;2023-08-06T10:53:34;0.40;;;0.20;;
69716;SDS011;67420;46.144;19.666;2023-08-06T11:03:37;0.20;;;0.20;;
69716;SDS011;67420;46.144;19.666;2023-08-06T11:13:41;0.35;;;0.13;;
69716;SDS011;67420;46.144;19.666;2023-08-06T11:23:44;0.20;;;0.20;;
69716;SDS011;67420;46.144;19.666;2023-08-06T11:33:47;0.20;;;0.20;;
69716;SDS011;67420;46.144;19.666;2023-08-06T11:43:49;0.20;;;0.20;;
69716;SDS011;67420;46.144;19.666;2023-08-06T11:53:51;1.00;;;0.30;;
69716;SDS011;67420;46.144;19.666;2023-08-06T12:03:59;0.30;;;0.30;;
69716;SDS011;67420;46.144;19.666;2023-08-06T12:14:01;0.40;;;0.40;;
69716;SDS011;67420;46.144;19.666;2023-08-06T12:24:03;0.45;;;0.30;;
69716;SDS011;67420;46.144;19.666;2023-08-06T12:34:05;0.75;;;0.35;;
69716;SDS011;67420;46.144;19.666;2023-08-06T12:44:07;0.28;;;0.28;;
69716;SDS011;67420;46.144;19.666;2023-08-06T12:54:10;0.30;;;0.30;;
69716;SDS011;67420;46.144;19.666;2023-08-06T13:04:13;2.97;;;0.50;;
69716;SDS011;67420;46.144;19.666;2023-08-06T13:14:24;0.47;;;0.35;;
69716;SDS011;67420;46.144;19.666;2023-08-06T13:24:26;1.13;;;0.40;;
69716;SDS011;67420;46.144;19.666;2023-08-06T13:34:29;1.60;;;0.50;;
69716;SDS011;67420;46.144;19.666;2023-08-06T13:44:31;2.25;;;0.60;;
69716;SDS011;67420;46.144;19.666;2023-08-06T13:54:38;1.00;;;0.73;;
69716;SDS011;67420;46.144;19.666;2023-08-06T14:04:40;1.67;;;0.52;;
69716;SDS011;67420;46.144;19.666;2023-08-06T14:14:43;0.45;;;0.40;;
69716;SDS011;67420;46.144;19.666;2023-08-06T14:24:45;1.95;;;0.43;;
69716;SDS011;67420;46.144;19.666;2023-08-06T14:34:48;0.73;;;0.30;;
69716;SDS011;67420;46.144;19.666;2023-08-06T14:44:50;0.63;;;0.38;;
69716;SDS011;67420;46.144;19.666;2023-08-06T14:54:52;2.20;;;0.40;;
69716;SDS011;67420;46.144;19.666;2023-08-06T15:04:57;1.55;;;0.50;;
69716;SDS011;67420;46.144;19.666;2023-08-06T15:14:59;0.82;;;0.47;;
69716;SDS011;67420;46.144;19.666;2023-08-06T15:25:03;0.77;;;0.60;;
69716;SDS011;67420;46.144;19.666;2023-08-06T15:35:06;2.40;;;0.60;;
69716;SDS011;67420;46.144;19.666;2023-08-06T15:45:09;1.67;;;0.68;;
69716;SDS011;67420;46.144;19.666;2023-08-06T15:55:13;3.05;;;0.70;;
69716;SDS011;67420;46.144;19.666;2023-08-06T16:05:16;2.03;;;0.88;;
69716;SDS011;67420;46.144;19.666;2023-08-06T16:15:18;2.20;;;0.57;;
69716;SDS011;67420;46.144;19.666;2023-08-06T16:25:21;0.57;;;0.50;;
69716;SDS011;67420;46.144;19.666;2023-08-06T16:35:23;1.13;;;0.70;;
69716;SDS011;67420;46.144;19.666;2023-08-06T16:45:29;1.80;;;0.50;;
69716;SDS011;67420;46.144;19.666;2023-08-06T16:55:32;0.88;;;0.68;;
69716;SDS011;67420;46.144;19.666;2023-08-06T17:05:34;2.33;;;0.77;;
69716;SDS011;67420;46.144;19.666;2023-08-06T17:15:36;1.67;;;0.70;;
69716;SDS011;67420;46.144;19.666;2023-08-06T17:25:42;1.77;;;0.70;;
69716;SDS011;67420;46.144;19.666;2023-08-06T17:35:46;0.98;;;0.90;;
69716;SDS011;67420;46.144;19.666;2023-08-06T17:45:48;1.33;;;0.60;;
69716;SDS011;67420;46.144;19.666;2023-08-06T17:55:50;0.70;;;0.70;;
69716;SDS011;67420;46.144;19.666;2023-08-06T18:05:56;1.52;;;0.70;;
69716;SDS011;67420;46.144;19.666;2023-08-06T18:15:59;0.77;;;0.57;;
69716;SDS011;67420;46.144;19.666;2023-08-06T18:26:01;0.70;;;0.68;;
69716;SDS011;67420;46.144;19.666;2023-08-06T18:36:05;0.55;;;0.55;;
69716;SDS011;67420;46.144;19.666;2023-08-06T18:46:07;0.52;;;0.52;;
69716;SDS011;67420;46.144;19.666;2023-08-06T18:56:09;0.95;;;0.70;;
69716;SDS011;67420;46.144;19.666;2023-08-06T19:06:11;2.25;;;0.70;;
69716;SDS011;67420;46.144;19.666;2023-08-06T19:16:13;1.65;;;0.60;;
69716;SDS011;67420;46.144;19.666;2023-08-06T19:26:15;1.10;;;0.60;;
69716;SDS011;67420;46.144;19.666;2023-08-06T19:36:17;0.65;;;0.60;;
69716;SDS011;67420;46.144;19.666;2023-08-06T19:46:19;2.40;;;0.60;;
69716;SDS011;67420;46.144;19.666;2023-08-06T19:56:21;2.85;;;0.90;;
69716;SDS011;67420;46.144;19.666;2023-08-06T20:06:24;5.10;;;1.00;;
69716;SDS011;67420;46.144;19.666;2023-08-06T20:16:31;3.22;;;0.80;;
69716;SDS011;67420;46.144;19.666;2023-08-06T20:26:33;3.60;;;1.08;;
69716;SDS011;67420;46.144;19.666;2023-08-06T20:36:35;1.30;;;0.88;;
69716;SDS011;67420;46.144;19.666;2023-08-06T20:46:37;2.20;;;0.88;;
69716;SDS011;67420;46.144;19.666;2023-08-06T20:56:39;2.78;;;0.95;;
69716;SDS011;67420;46.144;19.666;2023-08-06T21:06:42;0.90;;;0.57;;
69716;SDS011;67420;46.144;19.666;2023-08-06T21:16:45;3.20;;;0.90;;
69716;SDS011;67420;46.144;19.666;2023-08-06T21:26:48;1.77;;;0.95;;
69716;SDS011;67420;46.144;19.666;2023-08-06T21:36:50;2.15;;;0.77;;
69716;SDS011;67420;46.144;19.666;2023-08-06T21:46:51;0.98;;;0.65;;
69716;SDS011;67420;46.144;19.666;2023-08-06T21:56:54;2.00;;;0.70;;
69716;SDS011;67420;46.144;19.666;2023-08-06T22:06:56;0.70;;;0.63;;
69716;SDS011;67420;46.144;19.666;2023-08-06T22:16:58;0.88;;;0.70;;
69716;SDS011;67420;46.144;19.666;2023-08-06T22:27:00;3.80;;;1.02;;
69716;SDS011;67420;46.144;19.666;2023-08-06T22:37:04;1.35;;;0.57;;
69716;SDS011;67420;46.144;19.666;2023-08-06T22:47:06;1.10;;;0.60;;
69716;SDS011;67420;46.144;19.666;2023-08-06T22:57:09;1.98;;;0.50;;
69716;SDS011;67420;46.144;19.666;2023-08-06T23:07:11;1.38;;;0.63;;
69716;SDS011;67420;46.144;19.666;2023-08-06T23:17:13;0.32;;;0.32;;
69716;SDS011;67420;46.144;19.666;2023-08-06T23:27:15;0.63;;;0.47;;
69716;SDS011;67420;46.144;19.666;2023-08-06T23:37:17;0.70;;;0.40;;
69716;SDS011;67420;46.144;19.666;2023-08-06T23:47:19;0.40;;;0.38;;
69716;SDS011;67420;46.144;19.666;2023-08-06T23:57:21;0.88;;;0.60;;
